createdAt,value
2023-02-12T00:02:11.822Z,9.18
2023-02-12T00:04:40.343Z,9.21
2023-02-12T00:07:08.741Z,9.16
2023-02-12T00:09:38.183Z,9.73
2023-02-12T00:12:09.174Z,8.81
2023-02-12T00:14:39.298Z,8.44
2023-02-12T00:17:07.726Z,8.69
2023-02-12T00:19:38.259Z,9.23
2023-02-12T00:22:07.460Z,8.79
2023-02-12T00:24:35.765Z,8.38
2023-02-12T00:27:04.556Z,9.04
2023-02-12T00:29:32.900Z,9.55
2023-02-12T00:32:02.885Z,9.43
2023-02-12T00:34:31.267Z,9.35
2023-02-12T00:36:59.658Z,9.28
2023-02-12T00:39:28.477Z,9.39
2023-02-12T00:41:56.877Z,9.08
2023-02-12T00:44:25.425Z,9.23
2023-02-12T00:46:53.783Z,8.81
2023-02-12T00:49:23.811Z,9.06
2023-02-12T00:51:52.165Z,8.88
2023-02-12T00:54:22.531Z,9.21
2023-02-12T00:56:50.876Z,9.33
2023-02-12T00:59:19.238Z,8.24
2023-02-12T01:01:47.729Z,8.00
2023-02-12T01:04:17.049Z,7.71
2023-02-12T01:06:47.269Z,7.90
2023-02-12T01:09:16.253Z,8.07
2023-02-12T01:11:46.674Z,7.91
2023-02-12T01:14:15.090Z,8.41
2023-02-12T01:16:43.506Z,7.74
2023-02-12T01:19:12.995Z,8.05
2023-02-12T01:21:41.423Z,7.86
2023-02-12T01:24:11.759Z,8.04
2023-02-12T01:26:40.106Z,7.95
2023-02-12T01:29:08.957Z,7.56
2023-02-12T01:31:39.881Z,8.10
2023-02-12T01:34:09.073Z,8.20
2023-02-12T01:36:37.451Z,8.45
2023-02-12T01:39:07.132Z,8.66
2023-02-12T01:41:40.489Z,8.33
2023-02-12T01:44:13.089Z,8.30
2023-02-12T01:46:42.505Z,8.21
2023-02-12T01:49:15.627Z,8.90
2023-02-12T01:51:48.444Z,8.65
2023-02-12T01:54:21.375Z,8.38
2023-02-12T01:56:51.152Z,8.31
2023-02-12T01:59:46.614Z,7.96
2023-02-12T02:02:15.391Z,7.85
2023-02-12T02:04:50.560Z,7.75
2023-02-12T02:07:18.962Z,7.97
2023-02-12T02:09:47.892Z,7.86
2023-02-12T02:12:50.216Z,8.34
2023-02-12T02:15:18.940Z,8.27
2023-02-12T02:17:54.179Z,8.49
2023-02-12T02:21:00.625Z,8.64
2023-02-12T02:23:48.763Z,8.25
2023-02-12T02:26:45.993Z,8.01
2023-02-12T02:29:43.190Z,8.39
2023-02-12T02:32:18.177Z,8.48
2023-02-12T02:34:54.472Z,9.00
2023-02-12T02:37:30.770Z,8.12
2023-02-12T02:40:03.839Z,8.50
2023-02-12T02:42:37.011Z,8.18
2023-02-12T02:45:13.131Z,7.74
2023-02-12T02:47:46.794Z,8.11
2023-02-12T02:50:18.335Z,8.22
2023-02-12T02:52:51.914Z,8.04
2023-02-12T02:55:23.409Z,7.66
2023-02-12T02:57:57.054Z,7.74
2023-02-12T03:00:32.816Z,7.54
2023-02-12T03:03:08.891Z,7.87
2023-02-12T03:05:41.039Z,8.13
2023-02-12T03:08:13.424Z,8.34
2023-02-12T03:10:45.771Z,8.44
2023-02-12T03:13:18.239Z,8.06
2023-02-12T03:15:50.924Z,7.50
2023-02-12T03:18:24.557Z,7.36
2023-02-12T03:20:56.561Z,7.35
2023-02-12T03:23:29.058Z,7.44
2023-02-12T03:26:00.494Z,7.37
2023-02-12T03:28:32.600Z,6.58
2023-02-12T03:31:12.150Z,6.45
2023-02-12T03:33:59.413Z,6.64
2023-02-12T03:36:32.056Z,6.83
2023-02-12T03:39:09.646Z,7.08
2023-02-12T03:41:44.630Z,7.58
2023-02-12T03:44:24.073Z,6.86
2023-02-12T03:47:04.062Z,7.13
2023-02-12T03:49:38.029Z,7.40
2023-02-12T03:52:06.772Z,6.86
2023-02-12T03:54:37.085Z,7.41
2023-02-12T03:57:10.643Z,7.44
2023-02-12T03:59:41.410Z,8.04
2023-02-12T04:02:10.481Z,8.51
2023-02-12T04:04:40.489Z,9.00
2023-02-12T04:07:09.137Z,8.98
2023-02-12T04:09:37.601Z,8.59
2023-02-12T04:12:23.379Z,8.56
2023-02-12T04:15:01.078Z,8.59
2023-02-12T04:17:40.130Z,8.52
2023-02-12T04:20:18.638Z,8.81
2023-02-12T04:22:56.107Z,8.94
2023-02-12T04:25:38.068Z,8.56
2023-02-12T04:28:14.738Z,7.90
2023-02-12T04:30:48.733Z,7.79
2023-02-12T04:33:20.635Z,7.75
2023-02-12T04:35:55.470Z,8.28
2023-02-12T04:38:29.010Z,8.23
2023-02-12T04:40:57.871Z,8.61
2023-02-12T04:43:30.495Z,8.58
2023-02-12T04:45:59.151Z,8.34
2023-02-12T04:48:27.780Z,8.35
2023-02-12T04:50:57.592Z,7.81
2023-02-12T04:53:25.946Z,8.58
2023-02-12T04:55:55.449Z,8.22
2023-02-12T04:58:23.960Z,8.50
2023-02-12T05:00:52.350Z,7.73
2023-02-12T05:03:20.602Z,8.28
2023-02-12T05:05:48.920Z,8.54
2023-02-12T05:08:18.710Z,8.69
2023-02-12T05:10:47.089Z,8.03
2023-02-12T05:13:15.422Z,8.04
2023-02-12T05:15:43.865Z,8.24
2023-02-12T05:18:12.302Z,7.94
2023-02-12T05:20:40.604Z,8.01
2023-02-12T05:23:11.317Z,8.34
2023-02-12T05:25:41.125Z,8.15
2023-02-12T05:28:09.551Z,8.04
2023-02-12T05:30:37.939Z,8.08
2023-02-12T05:33:06.264Z,7.91
2023-02-12T05:35:35.718Z,8.23
2023-02-12T05:38:04.117Z,7.72
2023-02-12T05:40:32.533Z,7.82
2023-02-12T05:43:02.605Z,7.85
2023-02-12T05:45:30.917Z,8.00
2023-02-12T05:47:59.239Z,7.48
2023-02-12T05:50:27.553Z,7.53
2023-02-12T05:53:01.622Z,7.38
2023-02-12T05:55:30.073Z,7.45
2023-02-12T05:57:58.413Z,7.76
2023-02-12T06:00:28.246Z,7.84
2023-02-12T06:02:56.638Z,8.07
2023-02-12T06:05:25.010Z,8.16
2023-02-12T06:07:53.310Z,7.96
2023-02-12T06:10:21.849Z,7.65
2023-02-12T06:12:55.378Z,7.70
2023-02-12T06:15:23.766Z,7.68
2023-02-12T06:17:53.961Z,7.53
2023-02-12T06:20:22.304Z,7.39
2023-02-12T06:22:50.637Z,8.11
2023-02-12T06:25:19.105Z,8.46
2023-02-12T06:27:47.585Z,7.62
2023-02-12T06:30:16.746Z,8.27
2023-02-12T06:32:45.059Z,6.66
2023-02-12T06:35:15.022Z,6.47
2023-02-12T06:37:43.531Z,6.86
2023-02-12T06:40:12.361Z,6.72
2023-02-12T06:42:40.908Z,6.43
2023-02-12T06:45:09.839Z,6.57
2023-02-12T06:47:38.250Z,6.38
2023-02-12T06:50:08.150Z,6.38
2023-02-12T06:52:37.928Z,6.81
2023-02-12T06:55:06.712Z,6.51
2023-02-12T06:57:35.123Z,7.20
2023-02-12T07:00:08.506Z,6.50
2023-02-12T07:02:39.003Z,6.72
2023-02-12T07:05:07.660Z,6.57
2023-02-12T07:07:37.945Z,6.39
2023-02-12T07:10:08.651Z,6.37
2023-02-12T07:12:37.086Z,6.85
2023-02-12T07:15:05.934Z,7.07
2023-02-12T07:17:34.701Z,6.97
2023-02-12T07:20:03.384Z,6.96
2023-02-12T07:22:32.228Z,7.24
2023-02-12T07:25:01.874Z,7.23
2023-02-12T07:27:30.989Z,7.49
2023-02-12T07:29:59.402Z,7.77
2023-02-12T07:32:27.718Z,8.11
2023-02-12T07:34:56.018Z,8.34
2023-02-12T07:37:24.299Z,9.16
2023-02-12T07:39:52.840Z,9.02
2023-02-12T07:42:22.490Z,8.96
2023-02-12T07:44:51.772Z,8.95
2023-02-12T07:47:20.114Z,8.79
2023-02-12T07:49:48.442Z,9.75
2023-02-12T07:52:16.734Z,8.95
2023-02-12T07:54:45.186Z,8.97
2023-02-12T07:57:13.670Z,9.43
2023-02-12T07:59:43.272Z,9.74
2023-02-12T08:02:11.725Z,8.61
2023-02-12T08:04:40.212Z,8.55
2023-02-12T08:07:10.961Z,9.81
2023-02-12T08:09:39.344Z,9.07
2023-02-12T08:12:08.078Z,9.36
2023-02-12T08:14:36.539Z,9.27
2023-02-12T08:17:06.263Z,8.72
2023-02-12T08:19:34.548Z,9.53
2023-02-12T08:22:06.542Z,9.03
2023-02-12T08:24:35.074Z,8.30
2023-02-12T08:27:03.468Z,7.85
2023-02-12T08:29:31.855Z,7.76
2023-02-12T08:32:01.955Z,7.77
2023-02-12T08:34:33.340Z,7.74
2023-02-12T08:37:02.190Z,7.42
2023-02-12T08:39:32.929Z,7.73
2023-02-12T08:42:01.673Z,7.66
2023-02-12T08:44:30.648Z,7.79
2023-02-12T08:46:59.078Z,7.73
2023-02-12T08:49:29.760Z,7.88
2023-02-12T08:52:01.706Z,7.73
2023-02-12T08:54:32.286Z,7.96
2023-02-12T08:57:02.824Z,8.47
2023-02-12T08:59:31.375Z,8.53
2023-02-12T09:02:00.716Z,8.37
2023-02-12T09:04:30.222Z,8.24
2023-02-12T09:07:00.050Z,8.71
2023-02-12T09:09:28.750Z,8.13
2023-02-12T09:11:57.054Z,8.20
2023-02-12T09:14:25.458Z,7.83
2023-02-12T09:16:54.631Z,8.30
2023-02-12T09:19:23.285Z,8.45
2023-02-12T09:21:55.507Z,8.41
2023-02-12T09:24:27.364Z,8.28
2023-02-12T09:26:55.759Z,9.03
2023-02-12T09:29:24.393Z,9.01
2023-02-12T09:31:53.070Z,8.80
2023-02-12T09:34:21.480Z,8.56
2023-02-12T09:36:49.754Z,9.09
2023-02-12T09:39:18.135Z,9.14
2023-02-12T09:42:29.873Z,9.76
2023-02-12T09:45:15.246Z,9.39
2023-02-12T09:47:48.894Z,9.45
2023-02-12T09:50:49.692Z,9.91
2023-02-12T09:53:22.285Z,9.42
2023-02-12T09:56:18.429Z,9.70
2023-02-12T09:58:52.667Z,9.08
2023-02-12T10:01:24.135Z,9.32
2023-02-12T10:03:53.816Z,9.45
2023-02-12T10:06:24.548Z,8.93
2023-02-12T10:09:06.436Z,9.91
2023-02-12T10:11:56.591Z,9.58
2023-02-12T10:14:53.080Z,9.64
2023-02-12T10:17:31.251Z,10.58
2023-02-12T10:20:17.805Z,9.92
2023-02-12T10:22:59.467Z,9.57
2023-02-12T10:25:33.792Z,9.78
2023-02-12T10:28:13.321Z,10.24
2023-02-12T10:30:49.923Z,9.60
2023-02-12T10:33:21.852Z,9.86
2023-02-12T10:35:55.138Z,9.94
2023-02-12T10:38:28.786Z,9.68
2023-02-12T10:41:01.731Z,10.75
2023-02-12T10:43:30.594Z,9.62
2023-02-12T10:46:00.399Z,10.14
2023-02-12T10:48:34.213Z,10.35
2023-02-12T10:51:17.297Z,10.39
2023-02-12T10:53:47.055Z,9.79
2023-02-12T10:56:19.424Z,10.35
2023-02-12T10:58:56.755Z,10.11
2023-02-12T11:01:29.175Z,10.47
2023-02-12T11:03:59.659Z,9.96
2023-02-12T11:06:30.498Z,10.07
2023-02-12T11:09:00.379Z,10.63
2023-02-12T11:11:31.046Z,10.46
2023-02-12T11:14:03.736Z,11.71
2023-02-12T11:16:35.762Z,11.56
2023-02-12T11:19:06.803Z,10.53
2023-02-12T11:21:39.294Z,10.77
2023-02-12T11:24:30.957Z,10.75
2023-02-12T11:27:23.445Z,10.91
2023-02-12T11:30:14.431Z,11.12
2023-02-12T11:32:44.297Z,11.02
2023-02-12T11:35:18.298Z,10.80
2023-02-12T11:37:48.368Z,10.43
2023-02-12T11:40:23.080Z,11.30
2023-02-12T11:42:54.318Z,11.51
2023-02-12T11:45:26.636Z,11.20
2023-02-12T11:47:56.564Z,11.84
2023-02-12T11:50:28.200Z,12.61
2023-02-12T11:53:09.393Z,11.45
2023-02-12T11:55:40.357Z,11.57
2023-02-12T11:58:17.871Z,11.61
2023-02-12T12:00:52.133Z,11.81
2023-02-12T12:03:26.268Z,11.40
2023-02-12T12:06:00.564Z,11.15
2023-02-12T12:08:32.962Z,12.32
2023-02-12T12:11:08.104Z,11.95
2023-02-12T12:13:42.521Z,11.63
2023-02-12T12:16:32.072Z,12.64
2023-02-12T12:19:25.270Z,11.59
2023-02-12T12:22:03.667Z,11.20
2023-02-12T12:24:41.482Z,11.48
2023-02-12T12:27:39.072Z,11.70
2023-02-12T12:30:17.039Z,11.67
2023-02-12T12:32:49.048Z,10.61
2023-02-12T12:35:26.206Z,11.47
2023-02-12T12:38:01.381Z,12.21
2023-02-12T12:40:47.933Z,11.73
2023-02-12T12:43:27.229Z,10.42
2023-02-12T12:46:24.604Z,10.97
2023-02-12T12:49:07.910Z,11.11
2023-02-12T12:51:54.995Z,11.19
2023-02-12T12:54:35.028Z,11.07
2023-02-12T12:57:11.528Z,10.62
2023-02-12T12:59:58.376Z,11.36
2023-02-12T13:03:02.856Z,11.64
2023-02-12T13:05:47.688Z,12.24
2023-02-12T13:08:33.465Z,11.75
2023-02-12T13:11:14.094Z,11.06
2023-02-12T13:13:47.055Z,11.52
2023-02-12T13:16:22.896Z,10.95
2023-02-12T13:18:59.975Z,11.18
2023-02-12T13:21:39.466Z,10.85
2023-02-12T13:24:24.501Z,11.73
2023-02-12T13:26:58.761Z,11.93
2023-02-12T13:29:30.744Z,11.82
2023-02-12T13:32:04.472Z,11.77
2023-02-12T13:34:36.640Z,11.26
2023-02-12T13:37:07.680Z,11.30
2023-02-12T13:39:40.559Z,11.96
2023-02-12T13:42:22.004Z,10.94
2023-02-12T13:44:59.281Z,11.79
2023-02-12T13:47:33.274Z,12.21
2023-02-12T13:50:09.181Z,12.09
2023-02-12T13:52:42.578Z,11.91
2023-02-12T13:55:24.825Z,11.84
2023-02-12T13:58:38.696Z,12.10
2023-02-12T14:01:09.335Z,12.19
2023-02-12T14:03:39.140Z,12.39
2023-02-12T14:06:16.470Z,12.78
2023-02-12T14:08:48.026Z,12.58
2023-02-12T14:11:20.380Z,12.23
2023-02-12T14:13:54.763Z,12.57
2023-02-12T14:16:39.781Z,12.05
2023-02-12T14:19:45.593Z,12.48
2023-02-12T14:22:15.580Z,11.94
2023-02-12T14:24:54.480Z,12.10
2023-02-12T14:27:31.771Z,11.64
2023-02-12T14:30:29.821Z,12.17
2023-02-12T14:33:27.940Z,12.42
2023-02-12T14:36:17.773Z,11.75
2023-02-12T14:39:04.808Z,11.86
2023-02-12T14:41:41.380Z,11.94
2023-02-12T14:44:43.266Z,12.29
2023-02-12T14:47:45.177Z,12.08
2023-02-12T14:50:23.129Z,12.00
2023-02-12T14:52:59.766Z,12.26
2023-02-12T14:55:34.288Z,12.20
2023-02-12T14:58:06.963Z,11.98
2023-02-12T15:00:41.235Z,11.76
2023-02-12T15:03:22.376Z,12.25
2023-02-12T15:06:04.722Z,11.60
2023-02-12T15:08:41.037Z,11.44
2023-02-12T15:11:21.246Z,12.00
2023-02-12T15:13:54.462Z,11.83
2023-02-12T15:16:35.601Z,12.10
2023-02-12T15:19:14.759Z,12.55
2023-02-12T15:21:46.097Z,12.19
2023-02-12T15:24:21.669Z,12.10
2023-02-12T15:26:51.919Z,12.26
2023-02-12T15:29:23.125Z,11.70
2023-02-12T15:31:53.980Z,12.41
2023-02-12T15:34:26.314Z,12.34
2023-02-12T15:36:57.649Z,11.97
2023-02-12T15:39:27.318Z,12.13
2023-02-12T15:41:55.819Z,11.63
2023-02-12T15:44:27.766Z,11.90
2023-02-12T15:47:05.308Z,11.62
2023-02-12T15:49:35.941Z,11.97
2023-02-12T15:52:09.512Z,11.68
2023-02-12T15:54:39.278Z,11.79
2023-02-12T15:57:12.369Z,11.80
2023-02-12T15:59:42.213Z,11.82
2023-02-12T16:02:21.342Z,11.38
2023-02-12T16:04:49.925Z,12.01
2023-02-12T16:07:21.424Z,12.14
2023-02-12T16:09:52.135Z,12.12
2023-02-12T16:12:23.909Z,11.77
2023-02-12T16:14:54.714Z,11.89
2023-02-12T16:17:28.302Z,12.22
2023-02-12T16:19:58.662Z,12.41
2023-02-12T16:22:33.841Z,11.54
2023-02-12T16:25:14.733Z,12.09
2023-02-12T16:27:54.674Z,12.30
2023-02-12T16:30:29.556Z,12.13
2023-02-12T16:32:58.420Z,11.93
2023-02-12T16:35:30.283Z,11.86
2023-02-12T16:38:03.533Z,11.61
2023-02-12T16:40:37.525Z,11.81
2023-02-12T16:43:23.730Z,11.69
2023-02-12T16:46:01.617Z,11.51
2023-02-12T16:48:31.162Z,11.33
2023-02-12T16:51:02.738Z,11.36
2023-02-12T16:53:43.083Z,11.50
2023-02-12T16:56:20.963Z,11.42
2023-02-12T16:58:55.196Z,11.46
2023-02-12T17:01:28.517Z,11.36
2023-02-12T17:03:58.408Z,11.29
2023-02-12T17:06:30.688Z,11.20
2023-02-12T17:09:01.180Z,11.16
2023-02-12T17:11:30.385Z,10.90
2023-02-12T17:13:58.716Z,10.91
2023-02-12T17:16:31.723Z,11.02
2023-02-12T17:19:01.696Z,10.89
2023-02-12T17:21:37.750Z,10.74
2023-02-12T17:24:10.129Z,10.75
2023-02-12T17:26:38.501Z,10.59
2023-02-12T17:29:08.966Z,10.57
2023-02-12T17:31:37.728Z,10.63
2023-02-12T17:34:06.876Z,10.89
2023-02-12T17:36:35.912Z,10.53
2023-02-12T17:39:07.901Z,10.47
2023-02-12T17:41:36.332Z,10.56
2023-02-12T17:44:05.120Z,10.42
2023-02-12T17:46:34.436Z,10.31
2023-02-12T17:49:02.918Z,10.49
2023-02-12T17:51:31.348Z,10.18
2023-02-12T17:53:59.691Z,10.43
2023-02-12T17:56:29.901Z,10.34
2023-02-12T17:58:58.362Z,10.42
2023-02-12T18:01:26.777Z,10.86
2023-02-12T18:03:56.948Z,10.77
2023-02-12T18:06:27.061Z,10.30
2023-02-12T18:08:56.541Z,10.39
2023-02-12T18:11:29.734Z,10.30
2023-02-12T18:13:58.916Z,9.69
2023-02-12T18:16:30.057Z,10.11
2023-02-12T18:18:59.889Z,10.19
2023-02-12T18:21:28.867Z,9.92
2023-02-12T18:23:57.276Z,10.17
2023-02-12T18:26:25.622Z,10.33
2023-02-12T18:28:58.339Z,10.27
2023-02-12T18:31:28.136Z,10.18
2023-02-12T18:33:56.578Z,10.29
2023-02-12T18:36:25.011Z,10.16
2023-02-12T18:38:54.150Z,9.76
2023-02-12T18:41:27.280Z,10.02
2023-02-12T18:43:58.554Z,10.07
2023-02-12T18:46:28.842Z,9.88
2023-02-12T18:48:58.272Z,9.76
2023-02-12T18:51:28.941Z,9.86
2023-02-12T18:54:01.303Z,10.00
2023-02-12T18:56:30.482Z,10.15
2023-02-12T18:59:05.370Z,9.46
2023-02-12T19:01:35.575Z,9.52
2023-02-12T19:04:06.646Z,9.82
2023-02-12T19:06:40.085Z,9.79
2023-02-12T19:09:08.608Z,9.51
2023-02-12T19:11:38.239Z,9.54
2023-02-12T19:14:08.083Z,9.16
2023-02-12T19:16:36.457Z,9.56
2023-02-12T19:19:04.898Z,9.43
2023-02-12T19:21:33.298Z,9.16
2023-02-12T19:24:03.645Z,8.94
2023-02-12T19:26:33.808Z,9.02
2023-02-12T19:29:03.263Z,9.35
2023-02-12T19:31:35.022Z,9.48
2023-02-12T19:34:08.538Z,9.27
2023-02-12T19:36:38.002Z,9.04
2023-02-12T19:39:06.897Z,9.12
2023-02-12T19:41:40.680Z,8.67
2023-02-12T19:44:12.881Z,9.00
2023-02-12T19:46:42.986Z,8.51
2023-02-12T19:49:15.472Z,8.87
2023-02-12T19:51:44.461Z,8.75
2023-02-12T19:54:17.052Z,8.70
2023-02-12T19:56:46.122Z,8.05
2023-02-12T19:59:17.076Z,7.97
2023-02-12T20:01:47.712Z,7.87
2023-02-12T20:04:18.851Z,7.50
2023-02-12T20:06:49.039Z,7.55
2023-02-12T20:09:20.964Z,7.63
2023-02-12T20:11:49.728Z,7.61
2023-02-12T20:14:20.764Z,7.64
2023-02-12T20:16:51.695Z,7.72
2023-02-12T20:19:22.793Z,8.42
2023-02-12T20:21:55.217Z,8.02
2023-02-12T20:24:27.815Z,7.67
2023-02-12T20:26:57.225Z,7.51
2023-02-12T20:29:25.563Z,8.16
2023-02-12T20:31:55.401Z,7.62
2023-02-12T20:34:23.925Z,7.57
2023-02-12T20:36:53.830Z,8.07
2023-02-12T20:39:22.763Z,7.91
2023-02-12T20:41:51.772Z,7.55
2023-02-12T20:44:22.359Z,7.80
2023-02-12T20:46:56.003Z,7.63
2023-02-12T20:49:26.986Z,8.05
2023-02-12T20:51:55.505Z,7.87
2023-02-12T20:54:24.026Z,7.56
2023-02-12T20:56:52.353Z,7.51
2023-02-12T20:59:20.841Z,7.27
2023-02-12T21:01:51.848Z,7.52
2023-02-12T21:04:20.951Z,7.27
2023-02-12T21:06:50.652Z,7.03
2023-02-12T21:09:19.858Z,6.92
2023-02-12T21:11:48.745Z,6.97
2023-02-12T21:14:22.204Z,6.89
2023-02-12T21:16:52.251Z,6.95
2023-02-12T21:19:21.049Z,7.13
2023-02-12T21:21:53.574Z,6.89
2023-02-12T21:24:23.506Z,7.35
2023-02-12T21:26:52.538Z,6.73
2023-02-12T21:29:23.600Z,6.75
2023-02-12T21:31:52.453Z,6.80
2023-02-12T21:34:23.335Z,6.88
2023-02-12T21:36:55.090Z,6.76
2023-02-12T21:39:26.411Z,6.71
2023-02-12T21:41:59.984Z,7.07
2023-02-12T21:44:28.849Z,7.34
2023-02-12T21:46:58.618Z,7.46
2023-02-12T21:49:27.725Z,7.52
2023-02-12T21:51:59.735Z,6.72
2023-02-12T21:54:28.957Z,7.33
2023-02-12T21:56:58.620Z,6.95
2023-02-12T22:02:36.377Z,7.28
2023-02-12T22:05:04.855Z,6.99
2023-02-12T22:07:33.254Z,7.34
2023-02-12T22:10:03.978Z,7.55
2023-02-12T22:12:32.315Z,6.94
2023-02-12T22:15:00.812Z,7.02
2023-02-12T22:17:29.158Z,7.31
2023-02-12T22:19:58.772Z,6.81
2023-02-12T22:22:27.889Z,6.91
2023-02-12T22:24:56.269Z,6.82
2023-02-12T22:27:24.635Z,6.48
2023-02-12T22:29:53.286Z,6.92
2023-02-12T22:32:21.843Z,7.08
2023-02-12T22:34:50.402Z,6.45
2023-02-12T22:37:20.296Z,6.41
2023-02-12T22:39:48.661Z,6.14
2023-02-12T22:42:16.997Z,5.94
2023-02-12T22:44:45.416Z,5.89
2023-02-12T22:47:15.768Z,5.51
2023-02-12T22:49:44.088Z,5.57
2023-02-12T22:52:12.409Z,5.42
2023-02-12T22:54:42.274Z,5.34
2023-02-12T22:57:10.634Z,5.35
2023-02-12T22:59:38.927Z,6.18
2023-02-12T23:02:07.285Z,6.18
2023-02-12T23:04:36.551Z,6.21
2023-02-12T23:07:04.882Z,5.71
2023-02-12T23:09:33.379Z,5.22
2023-02-12T23:12:07.442Z,4.89
2023-02-12T23:14:37.837Z,4.25
2023-02-12T23:17:06.212Z,4.35
2023-02-12T23:19:34.489Z,4.83
2023-02-12T23:22:02.870Z,5.44
2023-02-12T23:24:31.305Z,5.31
2023-02-12T23:26:59.608Z,5.67
2023-02-12T23:29:29.368Z,6.18
2023-02-12T23:31:57.720Z,6.26
2023-02-12T23:34:26.165Z,6.20
2023-02-12T23:36:54.491Z,6.29
2023-02-12T23:39:22.828Z,5.84
2023-02-12T23:41:51.236Z,6.48
2023-02-12T23:44:19.553Z,6.24
2023-02-12T23:46:51.908Z,6.25
2023-02-12T23:49:20.284Z,6.31
2023-02-12T23:51:48.680Z,6.60
2023-02-12T23:54:17.012Z,6.55
2023-02-12T23:56:47.686Z,6.19
2023-02-12T23:59:16.060Z,6.46
